Taos, NM

6:22 AM MDT on October 22, 2014 (GMT -0600)
Los Alamos | Change Station
CLOSE
Current Station
Airport
Location: Los Alamos,
Elevation: 7172 ft
Nearby Weather Stations

Elev 7172 ft 35.88 °N, 106.27 °W | Updated 7 minutes ago

Partly Cloudy
Partly Cloudy
46 °F
Feels Like 45 °F
N
4
Wind Variable Wind from North

Today
High -- | Low -- °F
--% Chance of Precip.
Yesterday
High -- | Low -- °F
Precip. -- in
7:15 AM 6:17 PM
Waning Crescent, 2% visible
Pressure 30.22 in
Visibility 10.0 miles
Clouds Clear
Windchill 45 °F
Dew Point 46 °F
Humidity 97%
Rainfall 0.00 in
Snow Depth 0 in
UV 0 out of 12
Pollen 2.60 out of 12
Air Quality Not available.
Flu Activity Sporadic
METAR KLAM 221215Z AUTO 35003KT 10SM CLR 08/08 A3022 RMK AO2 T00790075

More Conditions Fewer Conditions

Pressure 30.22 in
Visibility 10.0 miles
Clouds Clear
Windchill 45 °F
Dew Point 46 °F
Humidity 97%
Rainfall 0.00 in
Snow Depth 0 in
UV 0 out of 12
Pollen 2.60 out of 12
Air Quality Not available.
Flu Activity Sporadic
METAR KLAM 221215Z AUTO 35003KT 10SM CLR 08/08 A3022 RMK AO2 T00790075

More Conditions Fewer Conditions

10-Day Weather Forecast

Almanac

Astronomy

Oct. 22, 2014 Rise Set
Actual Time 7:15 AM MDT 6:17 PM MDT
Civil Twilight 6:49 AM MDT 6:43 PM MDT
Nautical Twilight 6:19 AM MDT 7:13 PM MDT
Astronomical Twilight 5:49 AM MDT 7:43 PM MDT
Moon 6:01 AM MDT 5:43 PM MDT
Length of Visible Light 11h 53m
Length of Day
11h 01m
Tomorrow will be 2m 9s shorter.
Waning Crescent, 2% of the Moon is Illuminated
Today
Waning Crescent
Oct 23
New
Oct 30
First Quarter
Nov 6
Full
Nov 14
Last Quarter

Today's Extremes

State Highs State Lows

Community

WunderPhotos

Upload Photos

1,763,907 photos uploaded!

Nearby

Snow Depth

Station Depth Elevation
Gallegos Peak 0 in 9800 ft
Tolby 0 in 10180 ft
Red River Pass #2 0 in 9850 ft
Bateman 0 in 9300 ft
Elk Cabin 0 in 8210 ft

Earthquake Activity

City Distance Mag. Time & Date
Trinidad, Colorado 59 miles 2.7 10:33 PM MDT
2014-10-20
Trinidad, Colorado 70 miles 2.5 10:01 PM MDT
2014-10-19
Minimum magnitude displayed is 2.5.

Coastal Water Temperatures

Place Temperature
No Stations Reporting

Nearby Weather Stations